Time;durP1;ratioP1;P1;durP2;ratioP2;P2;SDS_P1;SDS_P2;PMS_P1;PMS_P2;Temp;Humidity;BMP_temperature;BMP_pressure;BME280_temperature;BME280_humidity;BME280_pressure;Samples;Min_cycle;Max_cycle;Signal;HPM_P1;HPM_P2
2022/07/19 00:02:25;;;;;;;6.03;3.70;;;23.30;90.80;;;;;;5037644;28;20202;-80
2022/07/19 00:04:52;;;;;;;5.32;4.22;;;23.30;91.00;;;;;;5048930;28;20226;-80
2022/07/19 00:07:20;;;;;;;6.45;4.05;;;23.30;91.10;;;;;;5037141;28;20592;-79
2022/07/19 00:09:47;;;;;;;4.25;3.72;;;23.40;91.00;;;;;;5037843;28;20194;-79
2022/07/19 00:12:15;;;;;;;4.57;3.90;;;23.50;90.70;;;;;;5046476;28;20547;-80
2022/07/19 00:14:44;;;;;;;5.13;3.70;;;23.60;90.60;;;;;;5036749;28;20210;-80
2022/07/19 00:17:11;;;;;;;5.70;3.75;;;23.50;90.70;;;;;;5036974;28;20206;-79
2022/07/19 00:19:39;;;;;;;4.85;3.35;;;23.40;91.10;;;;;;5052943;28;20195;-80
2022/07/19 00:22:07;;;;;;;4.80;3.97;;;23.40;90.90;;;;;;5046260;28;20194;-80
2022/07/19 00:24:34;;;;;;;6.53;3.80;;;23.40;91.00;;;;;;5031834;28;20231;-79
2022/07/19 00:27:02;;;;;;;4.45;4.00;;;23.30;91.40;;;;;;5037616;28;20201;-79
2022/07/19 00:29:29;;;;;;;3.85;3.45;;;23.20;91.70;;;;;;5036743;28;20207;-79
2022/07/19 00:31:58;;;;;;;4.97;3.65;;;23.20;92.00;;;;;;5036433;28;20221;-79
2022/07/19 00:34:25;;;;;;;6.63;4.55;;;23.20;92.00;;;;;;5052477;28;20214;-79
2022/07/19 00:36:53;;;;;;;4.25;3.60;;;23.10;92.40;;;;;;5032878;28;20210;-79
2022/07/19 00:39:20;;;;;;;5.03;3.63;;;23.10;92.40;;;;;;5046759;28;20199;-79
2022/07/19 00:41:48;;;;;;;4.43;3.95;;;23.10;92.40;;;;;;5036810;28;20202;-79
2022/07/19 00:44:15;;;;;;;5.82;3.88;;;23.10;92.60;;;;;;5035347;28;20222;-79
2022/07/19 00:46:43;;;;;;;6.32;3.78;;;23.10;92.70;;;;;;5036350;28;20198;-79
2022/07/19 00:49:12;;;;;;;4.70;3.80;;;23.10;92.80;;;;;;5031011;28;20213;-80
2022/07/19 00:51:41;;;;;;;4.28;3.88;;;23.00;93.00;;;;;;5044866;28;20221;-79
2022/07/19 00:54:12;;;;;;;4.07;3.65;;;23.00;93.40;;;;;;5035950;28;20585;-79
2022/07/19 00:56:41;;;;;;;5.10;3.50;;;23.00;93.20;;;;;;5038620;28;20209;-80
2022/07/19 00:59:10;;;;;;;6.30;4.00;;;23.00;93.10;;;;;;5036037;28;20206;-79
2022/07/19 01:01:38;;;;;;;4.18;3.78;;;23.00;93.20;;;;;;5034271;28;20194;-79
2022/07/19 01:04:06;;;;;;;6.05;4.45;;;22.90;93.30;;;;;;5045085;28;20241;-79
2022/07/19 01:06:35;;;;;;;4.50;4.05;;;22.90;93.30;;;;;;5036691;28;20209;-79
2022/07/19 01:09:03;;;;;;;4.30;3.85;;;22.90;93.30;;;;;;5035463;28;20206;-79
2022/07/19 01:11:30;;;;;;;5.18;4.00;;;23.00;93.30;;;;;;5035309;28;20221;-79
2022/07/19 01:13:58;;;;;;;3.58;3.28;;;23.00;93.30;;;;;;5035709;28;20221;-79
2022/07/19 01:16:26;;;;;;;5.22;3.85;;;23.00;93.30;;;;;;5053702;28;20205;-79
2022/07/19 01:18:53;;;;;;;7.22;4.20;;;23.10;92.50;;;;;;5035605;28;20656;-80
2022/07/19 01:21:23;;;;;;;5.75;3.53;;;23.10;92.40;;;;;;5051844;28;20191;-79
2022/07/19 01:23:51;;;;;;;5.72;3.63;;;23.10;92.60;;;;;;5047280;28;20581;-80
2022/07/19 01:26:19;;;;;;;4.30;3.40;;;23.10;92.70;;;;;;5038798;28;20210;-80
2022/07/19 01:28:47;;;;;;;3.90;3.50;;;23.10;93.00;;;;;;5034949;28;20573;-79
2022/07/19 01:31:15;;;;;;;5.22;3.33;;;23.10;93.00;;;;;;5038815;28;20216;-79
2022/07/19 01:33:43;;;;;;;4.45;3.60;;;22.90;93.50;;;;;;5035296;28;20199;-79
2022/07/19 01:36:11;;;;;;;5.05;3.47;;;22.80;93.70;;;;;;5034727;28;20202;-80
2022/07/19 01:38:40;;;;;;;4.28;3.47;;;22.80;93.70;;;;;;5051911;28;20213;-80
2022/07/19 01:41:08;;;;;;;4.20;3.40;;;22.80;93.80;;;;;;5035224;28;20682;-80
2022/07/19 01:43:36;;;;;;;5.18;3.33;;;22.70;93.70;;;;;;5050584;28;20199;-80
2022/07/19 01:46:04;;;;;;;4.35;3.10;;;22.90;93.00;;;;;;5047924;28;20205;-79
2022/07/19 01:48:31;;;;;;;4.65;3.40;;;23.20;91.30;;;;;;5034998;28;20198;-80
2022/07/19 01:50:59;;;;;;;7.22;3.15;;;23.50;90.00;;;;;;5033978;28;20199;-80
2022/07/19 01:53:26;;;;;;;4.60;3.22;;;23.60;90.10;;;;;;5036179;28;20237;-79
2022/07/19 01:55:55;;;;;;;3.90;3.60;;;23.70;88.80;;;;;;5044648;28;20204;-80
2022/07/19 01:58:22;;;;;;;4.63;3.20;;;23.50;91.20;;;;;;5038021;28;20211;-80
2022/07/19 02:00:51;;;;;;;3.90;3.30;;;23.50;91.00;;;;;;5053580;28;20201;-80
2022/07/19 02:03:18;;;;;;;3.70;3.30;;;23.40;91.40;;;;;;5038220;28;20201;-79
2022/07/19 02:05:46;;;;;;;3.90;3.45;;;23.50;91.30;;;;;;5044278;28;20218;-80
2022/07/19 02:08:13;;;;;;;3.63;3.17;;;23.50;91.40;;;;;;5035966;28;20206;-79
2022/07/19 02:10:41;;;;;;;5.63;3.70;;;23.30;91.90;;;;;;5031334;28;20203;-79
2022/07/19 02:13:10;;;;;;;3.45;3.15;;;23.20;92.10;;;;;;5034732;28;20222;-80
2022/07/19 02:15:39;;;;;;;4.50;3.90;;;23.30;91.60;;;;;;5034721;28;20233;-79
2022/07/19 02:18:07;;;;;;;6.00;3.38;;;23.20;92.50;;;;;;5035030;28;20194;-79
2022/07/19 02:20:34;;;;;;;3.60;3.30;;;23.20;91.80;;;;;;5024594;28;20669;-80
2022/07/19 02:23:02;;;;;;;4.18;3.30;;;23.10;92.50;;;;;;5034823;28;20193;-79
2022/07/19 02:25:29;;;;;;;4.93;3.42;;;23.20;92.20;;;;;;5032814;28;20218;-80
2022/07/19 02:27:56;;;;;;;5.15;3.45;;;23.20;92.30;;;;;;5046887;28;20190;-79
2022/07/19 02:30:25;;;;;;;4.47;3.92;;;23.10;92.80;;;;;;5053389;28;20203;-79
2022/07/19 02:32:53;;;;;;;3.58;3.28;;;22.90;93.80;;;;;;5038384;28;20214;-79
2022/07/19 02:35:20;;;;;;;4.18;3.30;;;22.70;94.40;;;;;;5041984;28;20229;-79
2022/07/19 02:37:48;;;;;;;3.78;3.40;;;22.60;95.10;;;;;;5054650;28;20646;-79
2022/07/19 02:40:15;;;;;;;4.53;3.65;;;22.60;95.10;;;;;;5035905;28;20651;-79
2022/07/19 02:42:43;;;;;;;5.38;3.78;;;22.70;95.00;;;;;;5034351;28;20187;-80
2022/07/19 02:45:11;;;;;;;4.28;3.28;;;22.70;94.70;;;;;;5051839;28;20214;-80
2022/07/19 02:47:40;;;;;;;4.72;3.83;;;22.60;94.90;;;;;;5052450;28;20231;-79
2022/07/19 02:50:08;;;;;;;4.78;3.60;;;22.60;95.10;;;;;;5035560;28;20186;-79
2022/07/19 02:52:36;;;;;;;4.35;3.80;;;22.60;94.60;;;;;;5031706;28;20570;-79
2022/07/19 02:55:04;;;;;;;6.60;3.85;;;22.70;94.50;;;;;;5038252;28;20560;-80
2022/07/19 02:57:31;;;;;;;4.35;3.50;;;22.70;94.20;;;;;;5034361;28;20203;-79
2022/07/19 02:59:59;;;;;;;3.67;3.30;;;22.60;94.70;;;;;;5049074;28;20194;-79
2022/07/19 03:02:26;;;;;;;4.30;3.88;;;22.60;94.60;;;;;;5033485;28;20560;-79
2022/07/19 03:04:55;;;;;;;6.15;3.80;;;22.50;95.00;;;;;;5034105;28;20248;-79
2022/07/19 03:07:22;;;;;;;4.05;3.65;;;22.60;94.80;;;;;;5026270;28;20225;-79
2022/07/19 03:09:50;;;;;;;7.05;3.92;;;22.70;94.20;;;;;;5053835;28;20195;-79
2022/07/19 03:12:17;;;;;;;5.57;4.07;;;22.80;93.60;;;;;;5032904;28;20269;-79
2022/07/19 03:14:45;;;;;;;4.93;3.70;;;22.80;93.80;;;;;;5033249;28;20218;-79
2022/07/19 03:17:12;;;;;;;4.18;3.45;;;22.90;93.60;;;;;;5034058;28;20217;-80
2022/07/19 03:19:40;;;;;;;4.10;3.70;;;22.80;93.40;;;;;;5050586;28;20213;-80
2022/07/19 03:22:09;;;;;;;5.82;3.97;;;22.90;93.50;;;;;;5035853;28;20213;-80
2022/07/19 03:24:37;;;;;;;4.30;3.90;;;22.90;93.70;;;;;;5026220;28;20707;-79
2022/07/19 03:27:04;;;;;;;5.40;4.05;;;22.90;93.40;;;;;;5037688;28;20194;-80
2022/07/19 03:29:32;;;;;;;6.32;3.78;;;22.90;93.40;;;;;;5038739;28;20194;-79
2022/07/19 03:31:59;;;;;;;7.40;4.13;;;22.90;93.40;;;;;;5050099;28;20190;-79
2022/07/19 03:34:28;;;;;;;4.60;4.20;;;22.90;93.40;;;;;;5041988;28;20231;-79
2022/07/19 03:36:56;;;;;;;9.18;5.72;;;22.80;94.40;;;;;;5070409;28;20544;-80
2022/07/19 03:39:25;;;;;;;6.82;5.18;;;22.50;95.70;;;;;;5035700;28;20686;-80
2022/07/19 03:41:52;;;;;;;4.20;3.80;;;22.30;96.10;;;;;;5041173;28;20194;-80
2022/07/19 03:44:19;;;;;;;4.90;3.92;;;22.50;95.10;;;;;;5034382;28;20210;-79
2022/07/19 03:46:47;;;;;;;4.88;4.20;;;22.50;94.70;;;;;;5038108;28;20207;-79
2022/07/19 03:49:14;;;;;;;6.47;4.00;;;22.60;94.70;;;;;;5039055;28;20694;-80
2022/07/19 03:51:42;;;;;;;5.95;3.83;;;22.60;94.60;;;;;;5036724;28;20199;-79
2022/07/19 03:54:09;;;;;;;4.25;3.83;;;22.50;95.10;;;;;;5037200;28;20706;-79
2022/07/19 03:56:38;;;;;;;4.28;3.60;;;22.20;96.20;;;;;;5036791;28;20205;-79
2022/07/19 03:59:05;;;;;;;4.13;3.53;;;22.30;96.00;;;;;;5039861;28;20194;-79
2022/07/19 04:01:33;;;;;;;5.20;3.50;;;22.20;95.80;;;;;;5040775;28;20205;-83
2022/07/19 04:04:00;;;;;;;4.30;3.22;;;22.40;94.50;;;;;;5061876;28;20229;-83
2022/07/19 04:06:28;;;;;;;5.07;3.67;;;22.70;93.70;;;;;;5044172;28;20657;-83
2022/07/19 04:08:55;;;;;;;6.05;3.78;;;22.80;94.10;;;;;;5045558;28;20203;-83
2022/07/19 04:11:23;;;;;;;4.32;3.30;;;22.80;93.40;;;;;;5035729;28;20203;-84
2022/07/19 04:13:52;;;;;;;4.15;3.75;;;22.90;93.30;;;;;;5043867;28;20222;-83
2022/07/19 04:16:19;;;;;;;4.38;3.30;;;22.70;93.80;;;;;;5060328;28;20565;-83
2022/07/19 04:18:47;;;;;;;4.53;4.00;;;22.80;93.50;;;;;;5056464;28;20190;-84
2022/07/19 04:21:14;;;;;;;4.03;3.58;;;22.60;94.40;;;;;;5045789;28;20199;-83
2022/07/19 04:23:42;;;;;;;4.38;3.65;;;22.80;93.50;;;;;;5052045;28;20205;-83
2022/07/19 04:26:09;;;;;;;5.93;3.47;;;22.90;93.50;;;;;;5047549;28;20205;-84
2022/07/19 04:28:37;;;;;;;4.20;3.55;;;22.80;93.80;;;;;;5063931;28;20636;-83
2022/07/19 04:31:06;;;;;;;5.03;3.88;;;22.70;93.70;;;;;;5046314;28;20194;-83
2022/07/19 04:33:33;;;;;;;6.68;4.35;;;22.90;93.30;;;;;;5042730;28;20218;-83
2022/07/19 04:36:01;;;;;;;4.20;3.65;;;23.00;92.90;;;;;;5040595;28;20194;-83
2022/07/19 04:38:28;;;;;;;4.32;3.92;;;23.10;92.80;;;;;;5044070;28;20207;-82
2022/07/19 04:40:56;;;;;;;6.00;4.18;;;23.10;92.60;;;;;;5043422;28;20293;-82
2022/07/19 04:43:24;;;;;;;4.50;3.75;;;23.20;92.80;;;;;;5032449;28;20213;-83
2022/07/19 04:45:51;;;;;;;5.13;3.90;;;23.20;92.70;;;;;;5040807;28;20210;-82
2022/07/19 04:48:20;;;;;;;4.63;3.70;;;23.20;92.60;;;;;;5058196;28;20202;-83
2022/07/19 04:50:47;;;;;;;3.90;3.60;;;23.30;92.70;;;;;;5059613;28;20199;-83
2022/07/19 04:53:15;;;;;;;5.38;3.88;;;23.30;92.80;;;;;;5039910;28;20214;-82
2022/07/19 04:55:42;;;;;;;5.93;3.85;;;23.40;92.80;;;;;;5055298;28;20215;-83
2022/07/19 04:58:10;;;;;;;4.55;4.15;;;23.20;93.10;;;;;;5054387;28;20648;-83
2022/07/19 05:00:37;;;;;;;6.15;4.10;;;23.30;93.00;;;;;;5041233;28;20678;-82
2022/07/19 05:03:05;;;;;;;7.75;4.22;;;23.30;93.10;;;;;;5040573;28;20194;-82
2022/07/19 05:05:34;;;;;;;7.20;4.22;;;23.30;93.40;;;;;;5039357;28;20231;-83
2022/07/19 05:08:01;;;;;;;5.40;4.07;;;23.30;93.60;;;;;;5028795;28;20198;-82
2022/07/19 05:10:29;;;;;;;8.57;4.07;;;23.40;93.70;;;;;;5033831;28;20560;-82
2022/07/19 05:12:56;;;;;;;5.00;4.50;;;23.30;93.70;;;;;;5033042;28;20195;-84
2022/07/19 05:15:24;;;;;;;4.88;4.10;;;23.40;93.60;;;;;;5038353;28;20230;-83
2022/07/19 05:17:51;;;;;;;5.45;4.18;;;23.60;93.40;;;;;;5035380;28;20206;-83
2022/07/19 05:20:19;;;;;;;5.60;4.07;;;23.60;93.50;;;;;;5043265;28;20209;-83
2022/07/19 05:22:49;;;;;;;7.00;4.47;;;23.60;93.60;;;;;;5034798;28;20203;-83
2022/07/19 05:25:17;;;;;;;8.77;4.07;;;23.60;93.60;;;;;;5040299;28;20227;-82
2022/07/19 05:27:44;;;;;;;6.43;4.03;;;23.70;93.50;;;;;;5056172;28;20265;-82
2022/07/19 05:30:13;;;;;;;8.43;4.65;;;23.70;93.30;;;;;;5039507;28;20663;-82
2022/07/19 05:32:40;;;;;;;6.65;4.78;;;23.80;93.20;;;;;;5026195;28;20206;-82
2022/07/19 05:35:09;;;;;;;7.15;4.93;;;23.80;93.20;;;;;;5038778;28;20231;-82
2022/07/19 05:37:36;;;;;;;7.18;4.72;;;23.80;93.10;;;;;;5039215;28;20198;-82
2022/07/19 05:40:07;;;;;;;9.02;4.60;;;23.90;93.00;;;;;;5046346;28;20189;-83
2022/07/19 05:42:34;;;;;;;7.50;4.85;;;23.90;93.10;;;;;;5040999;28;20198;-82
2022/07/19 05:45:05;;;;;;;7.07;4.53;;;23.90;93.10;;;;;;5035305;28;20714;-82
2022/07/19 05:47:33;;;;;;;7.63;4.35;;;24.00;93.10;;;;;;5053840;28;20201;-82
2022/07/19 05:50:00;;;;;;;6.88;4.40;;;24.00;93.00;;;;;;5039904;28;20198;-82
2022/07/19 05:52:28;;;;;;;8.35;4.65;;;24.10;93.00;;;;;;5023435;28;20199;-83
2022/07/19 05:54:56;;;;;;;8.73;4.03;;;24.00;93.00;;;;;;5030531;28;20237;-83
2022/07/19 05:57:24;;;;;;;5.10;4.13;;;24.10;93.00;;;;;;5045110;28;20198;-82
2022/07/19 05:59:53;;;;;;;8.00;4.82;;;24.10;93.10;;;;;;5049927;28;20193;-82
2022/07/19 06:02:20;;;;;;;6.28;4.45;;;24.30;93.00;;;;;;5048505;28;20203;-82
2022/07/19 06:04:49;;;;;;;4.28;3.88;;;24.30;93.40;;;;;;5057068;28;20222;-82
2022/07/19 06:07:17;;;;;;;4.68;4.03;;;24.30;93.10;;;;;;5040916;28;20202;-82
2022/07/19 06:09:44;;;;;;;10.35;4.32;;;24.40;93.00;;;;;;5044188;28;20198;-82
2022/07/19 06:12:12;;;;;;;11.63;5.38;;;24.50;93.00;;;;;;5044278;28;20202;-82
2022/07/19 06:14:40;;;;;;;7.80;4.20;;;24.60;93.00;;;;;;5039506;28;20214;-82
2022/07/19 06:17:08;;;;;;;10.25;4.57;;;24.70;93.10;;;;;;5040804;28;20199;-82
2022/07/19 06:19:35;;;;;;;9.02;4.35;;;24.70;92.90;;;;;;5052351;28;20281;-82
2022/07/19 06:22:03;;;;;;;6.82;4.03;;;24.80;93.10;;;;;;5047352;28;20655;-83
2022/07/19 06:24:30;;;;;;;6.13;4.22;;;24.80;92.90;;;;;;5037396;28;20214;-82
2022/07/19 06:26:58;;;;;;;7.13;4.20;;;24.80;92.90;;;;;;5045002;28;20198;-83
2022/07/19 06:29:25;;;;;;;9.50;4.18;;;24.90;92.70;;;;;;5039054;28;20198;-82
2022/07/19 06:31:54;;;;;;;8.60;4.68;;;25.00;92.80;;;;;;5041919;28;20209;-83
2022/07/19 06:34:22;;;;;;;7.45;4.50;;;25.10;92.70;;;;;;5042076;28;20213;-83
2022/07/19 06:36:50;;;;;;;8.93;4.40;;;25.20;92.70;;;;;;5048453;28;20198;-83
2022/07/19 06:39:18;;;;;;;6.78;4.25;;;25.30;92.50;;;;;;5040930;28;20209;-83
2022/07/19 06:41:46;;;;;;;6.50;4.18;;;25.30;92.70;;;;;;5038122;28;20198;-82
2022/07/19 06:44:19;;;;;;;7.25;4.35;;;25.40;92.70;;;;;;5038506;28;20222;-83
2022/07/19 06:46:46;;;;;;;6.38;4.00;;;25.40;92.60;;;;;;5043991;28;20206;-83
2022/07/19 06:49:15;;;;;;;8.38;4.35;;;25.50;92.60;;;;;;5039484;28;20202;-83
2022/07/19 06:51:48;;;;;;;8.25;4.32;;;25.60;92.40;;;;;;5066083;28;20198;-83
2022/07/19 06:54:15;;;;;;;8.10;4.50;;;25.60;92.40;;;;;;5032503;28;20222;-83
2022/07/19 06:56:43;;;;;;;7.80;4.35;;;25.70;92.70;;;;;;5056866;28;20202;-83
2022/07/19 06:59:10;;;;;;;6.82;4.18;;;25.70;92.30;;;;;;5057745;28;20194;-83
2022/07/19 07:01:47;;;;;;;13.63;4.15;;;25.80;91.90;;;;;;5052711;28;20194;-83
2022/07/19 07:04:16;;;;;;;8.63;4.00;;;25.90;91.50;;;;;;5036075;28;20221;-83
2022/07/19 07:06:52;;;;;;;9.23;3.65;;;26.10;90.90;;;;;;5046333;28;20191;-83
2022/07/19 07:09:20;;;;;;;6.35;3.65;;;26.30;88.50;;;;;;5057305;28;20194;-83
2022/07/19 07:11:47;;;;;;;7.70;3.08;;;26.40;84.90;;;;;;5044839;28;20233;-83
2022/07/19 07:14:15;;;;;;;5.85;3.33;;;26.50;83.40;;;;;;5057204;28;20226;-83
2022/07/19 07:16:42;;;;;;;8.98;2.92;;;26.70;81.80;;;;;;5033245;28;20198;-83
2022/07/19 07:19:10;;;;;;;9.52;3.58;;;26.80;80.00;;;;;;5055500;28;20191;-83
2022/07/19 07:21:46;;;;;;;8.05;3.40;;;26.90;79.60;;;;;;5036308;28;20205;-78
2022/07/19 07:24:14;;;;;;;11.10;3.88;;;27.00;78.20;;;;;;5046832;28;20241;-79
2022/07/19 07:26:41;;;;;;;4.30;2.97;;;27.10;76.20;;;;;;5036156;28;20215;-79
2022/07/19 07:29:09;;;;;;;5.32;3.88;;;27.20;73.30;;;;;;5045303;28;20190;-79
2022/07/19 07:31:37;;;;;;;4.03;2.90;;;27.30;71.50;;;;;;5056697;28;20189;-79
2022/07/19 07:34:04;;;;;;;7.65;3.25;;;27.40;71.80;;;;;;5039236;28;20218;-79
2022/07/19 07:36:32;;;;;;;5.65;3.00;;;27.50;71.40;;;;;;5053661;28;20672;-79
2022/07/19 07:39:01;;;;;;;5.28;3.13;;;27.70;69.70;;;;;;5050525;28;20209;-78
2022/07/19 07:41:28;;;;;;;7.18;3.38;;;27.80;65.40;;;;;;5054786;28;20190;-78
2022/07/19 07:43:56;;;;;;;9.10;3.35;;;27.90;61.90;;;;;;5032239;28;20229;-78
2022/07/19 07:46:23;;;;;;;5.43;3.33;;;28.10;62.00;;;;;;5030874;28;20202;-78
2022/07/19 07:48:51;;;;;;;4.20;3.38;;;28.20;61.60;;;;;;5041637;28;20209;-78
2022/07/19 07:51:18;;;;;;;4.13;2.92;;;28.30;60.30;;;;;;5034868;28;20221;-78
2022/07/19 07:53:46;;;;;;;4.85;2.45;;;28.40;59.00;;;;;;5036842;28;20304;-79
2022/07/19 07:56:15;;;;;;;8.65;3.58;;;28.50;58.40;;;;;;5048575;28;20225;-79
2022/07/19 07:58:42;;;;;;;6.40;2.70;;;28.60;58.80;;;;;;5053499;28;20191;-79
2022/07/19 08:01:10;;;;;;;6.30;3.05;;;28.70;57.60;;;;;;5038223;28;20195;-79
2022/07/19 08:03:37;;;;;;;7.20;3.60;;;28.80;55.40;;;;;;5058301;28;20194;-79
2022/07/19 08:06:05;;;;;;;4.15;3.42;;;28.90;56.10;;;;;;5057216;28;20190;-78
2022/07/19 08:08:33;;;;;;;6.35;3.10;;;29.10;54.70;;;;;;5038258;28;20202;-78
2022/07/19 08:11:00;;;;;;;6.50;3.20;;;29.20;55.20;;;;;;5031889;28;20217;-79
2022/07/19 08:13:32;;;;;;;3.90;2.75;;;29.20;52.30;;;;;;5041701;28;20203;-79
2022/07/19 08:15:59;;;;;;;5.05;3.60;;;29.30;52.30;;;;;;5050620;28;20203;-79
2022/07/19 08:18:27;;;;;;;3.78;3.20;;;29.30;52.60;;;;;;5035300;28;20221;-79
2022/07/19 08:20:59;;;;;;;3.67;2.83;;;29.40;52.90;;;;;;5056153;28;20194;-79
2022/07/19 08:23:27;;;;;;;6.70;2.92;;;29.50;51.90;;;;;;5054457;28;20644;-79
2022/07/19 08:25:54;;;;;;;8.68;3.05;;;29.70;52.10;;;;;;5036994;28;20679;-79
2022/07/19 08:28:21;;;;;;;3.35;3.05;;;29.90;52.20;;;;;;5034427;28;20207;-79
2022/07/19 08:30:50;;;;;;;6.05;2.88;;;29.90;50.10;;;;;;5036781;28;20205;-79
2022/07/19 08:33:18;;;;;;;6.38;3.58;;;29.90;49.90;;;;;;5053009;28;20198;-79
2022/07/19 08:35:46;;;;;;;10.57;3.47;;;29.90;49.10;;;;;;5055603;28;20225;-79
2022/07/19 08:38:13;;;;;;;6.70;3.08;;;30.00;48.80;;;;;;5054896;28;20217;-79
2022/07/19 08:40:43;;;;;;;4.95;3.20;;;30.30;48.70;;;;;;5034770;28;20195;-79
2022/07/19 08:43:12;;;;;;;4.40;2.65;;;30.60;47.20;;;;;;5036471;28;20202;-79
2022/07/19 08:45:41;;;;;;;5.97;2.85;;;30.60;47.20;;;;;;5054200;28;20211;-79
2022/07/19 08:48:10;;;;;;;8.02;3.20;;;30.60;46.10;;;;;;5037408;28;20205;-79
2022/07/19 08:50:40;;;;;;;4.78;3.20;;;30.60;47.00;;;;;;5036441;28;20194;-79
2022/07/19 08:53:07;;;;;;;5.57;2.53;;;30.60;45.50;;;;;;5049878;28;20580;-79
2022/07/19 08:55:34;;;;;;;3.50;2.88;;;30.80;43.80;;;;;;5037388;28;20233;-79
2022/07/19 08:58:01;;;;;;;4.63;2.65;;;30.90;41.30;;;;;;5048783;28;20209;-79
2022/07/19 09:00:30;;;;;;;2.85;2.50;;;30.90;39.60;;;;;;5036126;28;20187;-79
2022/07/19 09:03:04;;;;;;;4.50;2.60;;;31.10;39.60;;;;;;5061894;28;20213;-79
2022/07/19 09:05:34;;;;;;;4.40;2.85;;;31.00;39.30;;;;;;5031056;28;20224;-79
2022/07/19 09:08:08;;;;;;;5.88;2.88;;;31.30;39.60;;;;;;5037929;28;20556;-79
2022/07/19 09:10:37;;;;;;;4.65;2.70;;;31.20;36.70;;;;;;5037628;28;20202;-79
2022/07/19 09:13:07;;;;;;;3.67;2.50;;;31.30;37.90;;;;;;5037618;28;20203;-79
2022/07/19 09:15:55;;;;;;;3.00;2.35;;;31.40;36.20;;;;;;5037547;28;20850;-79
2022/07/19 09:18:25;;;;;;;4.60;2.42;;;31.60;36.20;;;;;;5049145;28;20206;-79
2022/07/19 09:20:55;;;;;;;7.43;2.63;;;31.50;36.40;;;;;;5037036;28;20198;-79
2022/07/19 09:23:23;;;;;;;3.83;2.40;;;31.50;35.00;;;;;;5038247;28;20198;-79
2022/07/19 09:25:53;;;;;;;8.18;2.80;;;31.70;34.90;;;;;;5055684;28;20257;-79
2022/07/19 09:28:22;;;;;;;5.20;2.70;;;31.80;34.40;;;;;;5055444;28;20195;-79
2022/07/19 09:30:51;;;;;;;5.90;2.30;;;32.00;34.60;;;;;;5055838;28;20182;-79
2022/07/19 09:33:22;;;;;;;4.15;2.50;;;31.90;34.70;;;;;;5055852;28;20632;-79
2022/07/19 09:35:51;;;;;;;3.28;2.45;;;32.00;33.30;;;;;;5053833;28;20696;-79
2022/07/19 09:38:25;;;;;;;3.25;2.72;;;32.10;33.70;;;;;;5053735;28;20660;-79
2022/07/19 09:40:55;;;;;;;4.93;2.63;;;32.30;33.60;;;;;;5053446;28;20197;-79
2022/07/19 09:43:25;;;;;;;4.18;2.35;;;32.40;33.20;;;;;;5054878;28;20198;-79
2022/07/19 09:45:53;;;;;;;4.20;2.40;;;32.20;31.10;;;;;;5037672;28;20206;-79
2022/07/19 09:48:21;;;;;;;3.30;2.67;;;32.60;31.30;;;;;;5044860;28;20209;-79
2022/07/19 09:50:49;;;;;;;3.13;2.22;;;32.40;32.00;;;;;;5054628;28;20211;-79
2022/07/19 09:53:18;;;;;;;4.05;2.72;;;32.50;31.00;;;;;;5055736;28;20210;-79
2022/07/19 09:55:50;;;;;;;3.70;2.63;;;32.30;32.00;;;;;;5036639;28;20222;-79
2022/07/19 09:58:18;;;;;;;3.53;2.40;;;32.20;31.70;;;;;;5063834;28;20202;-79
2022/07/19 10:00:46;;;;;;;6.28;2.60;;;32.10;31.60;;;;;;5029731;28;20214;-79
2022/07/19 10:03:16;;;;;;;3.88;2.28;;;32.60;31.70;;;;;;5021424;28;20209;-79
2022/07/19 10:05:43;;;;;;;4.60;2.63;;;32.30;30.80;;;;;;5037009;28;20218;-79
2022/07/19 10:08:11;;;;;;;3.28;2.38;;;32.30;31.20;;;;;;5036103;28;20210;-79
2022/07/19 10:10:39;;;;;;;3.72;2.85;;;32.30;31.00;;;;;;5036586;28;20198;-79
2022/07/19 10:13:08;;;;;;;3.58;2.30;;;32.40;31.00;;;;;;5036677;28;20213;-79
2022/07/19 10:15:40;;;;;;;5.22;2.63;;;32.60;30.50;;;;;;5041322;28;20230;-79
2022/07/19 10:18:13;;;;;;;5.05;2.60;;;32.60;30.70;;;;;;5035721;28;20199;-79
2022/07/19 10:20:46;;;;;;;2.83;2.42;;;32.60;30.50;;;;;;5035036;28;20213;-79
2022/07/19 10:23:14;;;;;;;5.45;3.13;;;32.90;30.30;;;;;;5040876;28;20224;-79
2022/07/19 10:25:44;;;;;;;3.58;2.50;;;33.10;30.00;;;;;;5060301;28;20215;-79
2022/07/19 10:28:28;;;;;;;3.67;2.20;;;32.80;29.70;;;;;;5036349;28;20218;-79
2022/07/19 10:30:56;;;;;;;3.75;2.50;;;32.80;29.50;;;;;;5050383;28;20206;-79
2022/07/19 10:33:29;;;;;;;3.78;2.60;;;32.90;29.30;;;;;;5032177;28;20682;-79
2022/07/19 10:35:57;;;;;;;3.90;2.42;;;32.70;29.50;;;;;;5047356;28;20218;-79
2022/07/19 10:38:24;;;;;;;4.53;2.47;;;32.70;29.80;;;;;;5059483;28;20213;-79
2022/07/19 10:40:56;;;;;;;2.70;2.50;;;33.00;29.20;;;;;;5041836;28;20202;-79
2022/07/19 10:43:24;;;;;;;3.22;2.45;;;33.20;29.50;;;;;;5046149;28;20205;-79
2022/07/19 10:46:14;;;;;;;4.00;2.10;;;33.20;29.10;;;;;;5059013;28;20206;-79
2022/07/19 10:48:42;;;;;;;3.97;2.33;;;33.50;28.30;;;;;;5054946;28;20210;-79
2022/07/19 10:51:12;;;;;;;2.60;2.10;;;33.50;28.30;;;;;;5058375;28;20190;-79
2022/07/19 10:54:00;;;;;;;3.72;2.42;;;33.70;28.80;;;;;;5042012;28;20194;-79
2022/07/19 10:56:39;;;;;;;2.72;2.38;;;33.70;28.70;;;;;;5058736;28;20205;-79
2022/07/19 10:59:08;;;;;;;3.47;2.80;;;33.70;28.40;;;;;;5044098;28;20206;-79
2022/07/19 11:01:39;;;;;;;4.60;2.58;;;33.80;28.50;;;;;;5039753;28;20970;-79
2022/07/19 11:04:31;;;;;;;3.20;2.50;;;34.00;28.30;;;;;;5040424;28;20711;-80
2022/07/19 11:07:17;;;;;;;2.63;2.42;;;33.90;27.90;;;;;;5032761;28;20194;-79
2022/07/19 11:09:50;;;;;;;2.42;2.22;;;33.70;28.00;;;;;;5021603;28;20190;-79
2022/07/19 11:12:34;;;;;;;6.25;2.70;;;34.00;28.40;;;;;;5063541;28;20190;-79
2022/07/19 11:15:05;;;;;;;2.65;2.13;;;34.20;27.40;;;;;;5057106;28;20569;-79
2022/07/19 11:17:36;;;;;;;3.65;2.50;;;34.00;27.20;;;;;;5057435;28;20205;-79
2022/07/19 11:20:10;;;;;;;4.00;2.25;;;34.10;27.50;;;;;;5039732;28;20277;-79
2022/07/19 11:22:40;;;;;;;2.63;1.95;;;34.30;27.50;;;;;;5047168;28;20202;-79
2022/07/19 11:25:09;;;;;;;3.47;2.53;;;34.10;28.20;;;;;;5057615;28;20559;-79
2022/07/19 11:27:40;;;;;;;3.42;2.10;;;34.30;27.70;;;;;;5029198;28;20198;-79
2022/07/19 11:30:09;;;;;;;2.72;2.53;;;34.30;27.70;;;;;;5039818;28;20675;-79
2022/07/19 11:32:38;;;;;;;3.25;2.30;;;34.60;27.20;;;;;;5057258;28;20564;-79
2022/07/19 11:35:07;;;;;;;3.63;2.35;;;34.50;26.70;;;;;;5039779;28;20568;-79
2022/07/19 11:37:39;;;;;;;3.38;2.05;;;34.40;26.20;;;;;;5033276;28;20222;-79
2022/07/19 11:40:08;;;;;;;6.20;2.35;;;34.50;26.10;;;;;;5040018;28;20202;-79
2022/07/19 11:42:38;;;;;;;3.75;2.15;;;34.80;26.40;;;;;;5040709;28;20577;-79
2022/07/19 11:45:14;;;;;;;2.85;2.33;;;35.10;26.60;;;;;;5039339;28;20210;-79
2022/07/19 11:47:44;;;;;;;4.18;2.72;;;35.30;26.30;;;;;;5039110;28;20187;-79
2022/07/19 11:50:13;;;;;;;4.22;2.38;;;35.50;26.30;;;;;;5055449;28;20201;-79
2022/07/19 11:52:49;;;;;;;3.58;2.55;;;35.60;25.70;;;;;;5056142;28;20186;-79
2022/07/19 11:55:17;;;;;;;3.00;2.05;;;35.60;26.00;;;;;;5041646;28;20584;-79
2022/07/19 11:57:45;;;;;;;2.63;2.40;;;35.70;25.90;;;;;;5041764;28;20221;-79
2022/07/19 12:00:14;;;;;;;3.20;2.30;;;35.70;26.10;;;;;;5039375;28;20198;-79
2022/07/19 12:02:57;;;;;;;2.92;1.98;;;35.80;25.50;;;;;;5057164;28;20197;-79
2022/07/19 12:05:25;;;;;;;4.50;2.58;;;35.80;25.30;;;;;;5039161;28;20226;-79
2022/07/19 12:07:54;;;;;;;2.60;2.40;;;35.70;24.90;;;;;;5039122;28;20194;-79
2022/07/19 12:10:53;;;;;;;4.85;2.70;;;35.90;25.10;;;;;;5038025;28;20198;-79
2022/07/19 12:13:29;;;;;;;4.13;2.80;;;35.90;25.30;;;;;;5047444;28;20206;-79
2022/07/19 12:16:00;;;;;;;5.65;2.88;;;35.40;24.80;;;;;;5057063;28;20220;-79
2022/07/19 12:21:40;;;;;;;2.63;2.40;;;35.40;24.90;;;;;;5127499;27;20549;-79
2022/07/19 12:24:17;;;;;;;2.58;2.20;;;35.80;25.30;;;;;;5133155;28;20207;-79
2022/07/19 12:26:54;;;;;;;5.13;2.15;;;36.10;24.30;;;;;;5130475;28;20187;-79
2022/07/19 12:29:23;;;;;;;4.82;2.38;;;36.20;24.30;;;;;;5131590;27;20631;-79
2022/07/19 12:31:52;;;;;;;3.28;2.20;;;36.30;24.10;;;;;;5127476;28;20277;-79
2022/07/19 12:34:23;;;;;;;3.67;2.83;;;36.40;23.40;;;;;;5121147;28;20228;-79
2022/07/19 12:36:52;;;;;;;3.08;2.78;;;36.30;24.00;;;;;;5127160;27;20195;-79
2022/07/19 12:39:23;;;;;;;3.15;2.47;;;36.60;24.20;;;;;;5116202;28;20220;-80
2022/07/19 12:41:59;;;;;;;3.88;2.40;;;36.20;23.50;;;;;;5118816;28;20561;-81
2022/07/19 12:44:27;;;;;;;2.50;2.30;;;36.30;23.70;;;;;;5125774;27;20230;-79
2022/07/19 12:46:55;;;;;;;3.67;2.45;;;36.70;24.20;;;;;;5131271;28;20199;-79
2022/07/19 12:49:23;;;;;;;3.80;2.65;;;36.90;24.10;;;;;;5125328;28;20195;-78
2022/07/19 12:51:52;;;;;;;2.35;2.15;;;37.10;24.40;;;;;;5113717;28;20207;-78
2022/07/19 12:54:20;;;;;;;2.50;2.30;;;37.20;23.50;;;;;;5120408;28;20234;-78
2022/07/19 12:56:47;;;;;;;3.03;2.45;;;37.20;23.00;;;;;;5113278;28;20200;-78
2022/07/19 13:02:05;;;;;;;2.67;2.47;;;37.20;22.70;;;;;;5100852;28;20200;-78